createdAt,value
2023-05-12T00:00:58.001Z,22.30
2023-05-12T00:03:26.512Z,22.50
2023-05-12T00:05:54.749Z,22.20
2023-05-12T00:08:22.780Z,22.50
2023-05-12T00:10:51.009Z,22.40
2023-05-12T00:13:23.534Z,22.40
2023-05-12T00:15:52.462Z,22.60
2023-05-12T00:18:20.891Z,22.50
2023-05-12T00:20:49.219Z,22.50
2023-05-12T00:23:17.487Z,22.30
2023-05-12T00:25:45.540Z,22.40
2023-05-12T00:28:13.562Z,22.20
2023-05-12T00:30:42.909Z,22.60
2023-05-12T00:33:10.972Z,22.40
2023-05-12T00:35:39.013Z,22.20
2023-05-12T00:38:07.087Z,22.30
2023-05-12T00:40:35.223Z,22.30
2023-05-12T00:43:03.450Z,22.20
2023-05-12T00:45:32.133Z,22.30
2023-05-12T00:48:01.535Z,22.20
2023-05-12T00:50:29.808Z,22.00
2023-05-12T00:52:59.407Z,22.30
2023-05-12T00:55:28.217Z,22.20
2023-05-12T00:57:56.997Z,22.30
2023-05-12T01:00:25.066Z,22.00
2023-05-12T01:02:53.177Z,22.00
2023-05-12T01:05:22.643Z,22.30
2023-05-12T01:07:51.066Z,22.40
2023-05-12T01:10:20.301Z,22.30
2023-05-12T01:12:49.206Z,22.20
2023-05-12T01:15:18.083Z,22.30
2023-05-12T01:17:53.722Z,22.60
2023-05-12T01:20:26.866Z,22.40
2023-05-12T01:22:56.656Z,22.10
2023-05-12T01:25:26.032Z,22.10
2023-05-12T01:27:55.502Z,22.10
2023-05-12T01:30:25.645Z,22.20
2023-05-12T01:32:54.523Z,22.30
2023-05-12T01:35:22.689Z,22.40
2023-05-12T01:37:51.946Z,22.20
2023-05-12T01:40:20.602Z,22.20
2023-05-12T01:42:48.788Z,22.20
2023-05-12T01:45:18.198Z,22.20
2023-05-12T01:47:46.242Z,22.20
2023-05-12T01:50:14.256Z,22.00
2023-05-12T01:52:42.379Z,22.40
2023-05-12T01:55:10.796Z,22.30
2023-05-12T01:57:38.859Z,22.30
2023-05-12T02:00:08.939Z,21.90
2023-05-12T02:02:39.662Z,21.80
2023-05-12T02:05:10.175Z,22.10
2023-05-12T02:07:38.222Z,22.20
2023-05-12T02:10:08.148Z,22.20
2023-05-12T02:12:36.175Z,22.10
2023-05-12T02:15:04.281Z,22.30
2023-05-12T02:17:32.368Z,22.20
2023-05-12T02:20:01.872Z,21.90
2023-05-12T02:22:29.832Z,22.50
2023-05-12T02:24:57.804Z,21.90
2023-05-12T02:27:25.786Z,22.30
2023-05-12T02:29:54.022Z,22.20
2023-05-12T02:32:22.558Z,22.20
2023-05-12T02:34:50.535Z,22.10
2023-05-12T02:37:19.882Z,22.20
2023-05-12T02:39:47.937Z,22.10
2023-05-12T02:42:16.348Z,22.20
2023-05-12T02:44:44.292Z,22.10
2023-05-12T02:47:12.321Z,22.30
2023-05-12T02:49:40.404Z,22.00
2023-05-12T02:52:08.428Z,22.10
2023-05-12T02:54:37.789Z,22.40
2023-05-12T02:57:07.288Z,22.40
2023-05-12T02:59:35.344Z,22.40
2023-05-12T03:02:04.891Z,22.00
2023-05-12T03:04:33.472Z,21.90
2023-05-12T03:07:01.510Z,22.20
2023-05-12T03:09:29.534Z,21.80
2023-05-12T03:11:58.813Z,22.20
2023-05-12T03:14:28.577Z,21.90
2023-05-12T03:16:56.631Z,22.30
2023-05-12T03:19:24.782Z,22.20
2023-05-12T03:21:52.828Z,22.30
2023-05-12T03:24:21.186Z,21.80
2023-05-12T03:26:49.172Z,21.80
2023-05-12T03:29:18.518Z,22.10
2023-05-12T03:31:46.580Z,22.00
2023-05-12T03:34:15.074Z,21.90
2023-05-12T03:36:43.303Z,22.30
2023-05-12T03:39:12.164Z,22.10
2023-05-12T03:41:40.175Z,22.20
2023-05-12T03:44:08.699Z,21.90
2023-05-12T03:46:38.335Z,22.20
2023-05-12T03:49:06.642Z,21.90
2023-05-12T03:51:34.686Z,22.40
2023-05-12T03:54:02.758Z,22.40
2023-05-12T03:56:30.808Z,22.10
2023-05-12T03:58:58.977Z,22.20
2023-05-12T04:01:26.993Z,22.30
2023-05-12T04:03:56.413Z,22.00
2023-05-12T04:06:24.522Z,21.80
2023-05-12T04:08:52.570Z,22.00
2023-05-12T04:11:20.633Z,22.30
2023-05-12T04:13:48.592Z,22.20
2023-05-12T04:16:16.754Z,22.10
2023-05-12T04:18:44.803Z,22.10
2023-05-12T04:21:14.284Z,22.10
2023-05-12T04:23:42.254Z,22.30
2023-05-12T04:26:10.320Z,22.20
2023-05-12T04:28:38.274Z,22.40
2023-05-12T04:31:06.401Z,22.30
2023-05-12T04:33:34.372Z,22.10
2023-05-12T04:36:02.409Z,22.20
2023-05-12T04:38:31.760Z,22.40
2023-05-12T04:41:00.344Z,22.10
2023-05-12T04:46:00.542Z,22.10
2023-05-12T04:48:29.022Z,22.30
2023-05-12T04:50:57.126Z,22.10
2023-05-12T04:53:25.216Z,22.10
2023-05-12T04:55:56.443Z,22.20
2023-05-12T04:58:24.492Z,22.20
2023-05-12T05:00:52.894Z,22.20
2023-05-12T05:03:21.048Z,22.10
2023-05-12T05:05:52.062Z,22.20
2023-05-12T05:08:20.282Z,22.00
2023-05-12T05:10:48.270Z,22.40
2023-05-12T05:13:17.672Z,22.20
2023-05-12T05:15:51.972Z,22.10
2023-05-12T05:18:23.192Z,22.30
2023-05-12T05:20:57.884Z,22.10
2023-05-12T05:23:27.233Z,22.30
2023-05-12T05:25:55.520Z,22.40
2023-05-12T05:28:26.501Z,22.40
2023-05-12T05:30:56.723Z,22.10
2023-05-12T05:33:24.961Z,22.30
2023-05-12T05:35:53.018Z,22.20
2023-05-12T05:38:21.308Z,22.30
2023-05-12T05:40:52.877Z,22.30
2023-05-12T05:43:23.887Z,22.40
2023-05-12T05:45:52.252Z,22.50
2023-05-12T05:48:20.974Z,22.40
2023-05-12T05:50:49.382Z,22.60
2023-05-12T05:53:18.333Z,22.50
2023-05-12T05:55:46.429Z,22.70
2023-05-12T05:58:15.121Z,22.50
2023-05-12T06:00:45.078Z,22.30
2023-05-12T06:03:13.329Z,22.10
2023-05-12T06:05:42.088Z,22.30
2023-05-12T06:08:13.041Z,22.40
2023-05-12T06:10:41.922Z,22.00
2023-05-12T06:13:09.907Z,22.20
2023-05-12T06:15:37.995Z,22.50
2023-05-12T06:18:07.569Z,22.10
2023-05-12T06:20:35.846Z,22.30
2023-05-12T06:23:03.872Z,22.40
2023-05-12T06:25:33.117Z,22.10
2023-05-12T06:28:01.203Z,22.20
2023-05-12T06:30:29.335Z,22.30
2023-05-12T06:32:57.431Z,22.20
2023-05-12T06:35:27.352Z,22.10
2023-05-12T06:37:55.331Z,22.20
2023-05-12T06:40:23.307Z,22.00
2023-05-12T06:42:51.361Z,21.60
2023-05-12T06:45:19.526Z,21.40
2023-05-12T06:47:47.755Z,20.90
2023-05-12T06:50:16.904Z,21.30
2023-05-12T06:52:46.846Z,20.80
2023-05-12T06:55:19.862Z,21.30
2023-05-12T06:57:48.218Z,21.50
2023-05-12T07:00:17.163Z,21.70
2023-05-12T07:02:45.164Z,21.90
2023-05-12T07:05:13.428Z,22.00
2023-05-12T07:07:41.483Z,22.20
2023-05-12T07:10:11.574Z,22.30
2023-05-12T07:12:40.036Z,22.20
2023-05-12T07:15:10.050Z,22.00
2023-05-12T07:17:38.206Z,22.30
2023-05-12T07:20:08.108Z,22.40
2023-05-12T07:22:38.677Z,22.50
2023-05-12T07:25:08.523Z,22.40
2023-05-12T07:27:37.845Z,22.30
2023-05-12T07:30:07.821Z,22.30
2023-05-12T07:32:36.368Z,22.40
2023-05-12T07:35:05.152Z,22.80
2023-05-12T07:37:33.216Z,22.40
2023-05-12T07:40:01.432Z,22.40
2023-05-12T07:42:29.818Z,22.40
2023-05-12T07:44:59.726Z,22.60
2023-05-12T07:47:28.798Z,22.20
2023-05-12T07:49:56.788Z,22.30
2023-05-12T07:52:25.179Z,22.90
2023-05-12T07:54:53.270Z,22.40
2023-05-12T07:57:21.567Z,22.60
2023-05-12T07:59:49.704Z,22.50
2023-05-12T08:02:20.522Z,22.50
2023-05-12T08:04:48.786Z,22.30
2023-05-12T08:07:18.204Z,22.70
2023-05-12T08:09:48.318Z,22.90
2023-05-12T08:12:16.434Z,22.40
2023-05-12T08:14:44.463Z,22.50
2023-05-12T08:17:12.573Z,22.90
2023-05-12T08:19:42.094Z,23.00
2023-05-12T08:22:10.148Z,22.80
2023-05-12T08:24:38.257Z,22.60
2023-05-12T08:27:06.624Z,22.90
2023-05-12T08:29:34.637Z,23.00
2023-05-12T08:32:03.325Z,22.90
2023-05-12T08:34:31.487Z,22.90
2023-05-12T08:37:01.171Z,22.90
2023-05-12T08:39:30.886Z,22.50
2023-05-12T08:42:10.924Z,22.50
2023-05-12T08:44:39.436Z,22.90
2023-05-12T08:47:07.936Z,22.60
2023-05-12T08:49:38.619Z,23.10
2023-05-12T08:52:09.802Z,23.20
2023-05-12T08:54:54.845Z,22.90
2023-05-12T08:57:26.391Z,23.20
2023-05-12T08:59:56.985Z,23.40
2023-05-12T09:02:25.735Z,23.30
2023-05-12T09:04:54.920Z,23.30
2023-05-12T09:07:26.566Z,23.20
2023-05-12T09:09:59.165Z,23.40
2023-05-12T09:12:32.327Z,23.50
2023-05-12T09:15:05.497Z,23.40
2023-05-12T09:17:33.585Z,23.90
2023-05-12T09:20:02.863Z,23.40
2023-05-12T09:22:33.577Z,23.60
2023-05-12T09:25:01.822Z,23.30
2023-05-12T09:27:30.919Z,23.60
2023-05-12T09:29:59.905Z,23.50
2023-05-12T09:32:32.867Z,23.50
2023-05-12T09:35:05.148Z,23.40
2023-05-12T09:37:35.794Z,23.50
2023-05-12T09:40:07.271Z,23.30
2023-05-12T09:42:36.702Z,23.40
2023-05-12T09:45:05.721Z,23.40
2023-05-12T09:47:38.984Z,23.30
2023-05-12T09:50:10.037Z,23.60
2023-05-12T09:52:41.097Z,23.50
2023-05-12T09:55:11.569Z,23.30
2023-05-12T09:57:41.695Z,23.50
2023-05-12T10:00:25.769Z,23.40
2023-05-12T10:03:02.515Z,23.50
2023-05-12T10:05:32.608Z,23.50
2023-05-12T10:08:04.568Z,23.40
2023-05-12T10:10:35.324Z,23.60
2023-05-12T10:13:04.550Z,23.50
2023-05-12T10:15:33.696Z,23.70
2023-05-12T10:18:02.473Z,23.50
2023-05-12T10:20:31.554Z,23.80
2023-05-12T10:23:02.135Z,23.60
2023-05-12T10:25:32.631Z,23.80
2023-05-12T10:28:03.942Z,23.80
2023-05-12T10:30:32.666Z,23.90
2023-05-12T10:33:01.976Z,23.90
2023-05-12T10:35:34.469Z,23.80
2023-05-12T10:38:08.525Z,23.70
2023-05-12T10:40:36.790Z,24.00
2023-05-12T10:43:05.019Z,23.90
2023-05-12T10:45:37.354Z,23.80
2023-05-12T10:48:08.390Z,23.90
2023-05-12T10:50:36.597Z,24.00
2023-05-12T10:53:05.914Z,24.00
2023-05-12T10:55:37.242Z,24.10
2023-05-12T10:58:08.683Z,23.90
2023-05-12T11:00:47.075Z,24.30
2023-05-12T11:03:18.897Z,24.10
2023-05-12T11:06:02.910Z,24.00
2023-05-12T11:08:35.676Z,24.10
2023-05-12T11:11:04.507Z,23.90
2023-05-12T11:13:32.542Z,23.80
2023-05-12T11:16:00.632Z,24.00
2023-05-12T11:18:28.622Z,23.90
2023-05-12T11:20:56.662Z,23.70
2023-05-12T11:23:29.410Z,23.80
2023-05-12T11:25:58.811Z,24.10
2023-05-12T11:28:27.072Z,23.80
2023-05-12T11:30:55.898Z,24.10
2023-05-12T11:33:24.424Z,23.90
2023-05-12T11:35:52.444Z,24.30
2023-05-12T11:38:24.236Z,24.10
2023-05-12T11:40:52.335Z,24.10
2023-05-12T11:43:23.278Z,24.50
2023-05-12T11:45:51.431Z,24.50
2023-05-12T11:48:19.636Z,24.40
2023-05-12T11:50:48.095Z,24.50
2023-05-12T11:53:19.801Z,24.80
2023-05-12T11:55:51.889Z,25.00
2023-05-12T11:58:26.501Z,25.00
2023-05-12T12:00:55.239Z,24.90
2023-05-12T12:03:23.651Z,25.20
2023-05-12T12:06:02.954Z,25.10
2023-05-12T12:08:31.801Z,24.90
2023-05-12T12:11:01.417Z,25.30
2023-05-12T12:13:32.941Z,25.20
2023-05-12T12:16:01.048Z,25.50
2023-05-12T12:18:29.108Z,25.50
2023-05-12T12:20:57.178Z,25.00
2023-05-12T12:23:25.511Z,25.30
2023-05-12T12:25:53.654Z,25.10
2023-05-12T12:28:21.641Z,25.30
2023-05-12T12:30:51.391Z,25.00
2023-05-12T12:33:20.702Z,25.20
2023-05-12T12:35:48.916Z,25.30
2023-05-12T12:38:17.372Z,25.40
2023-05-12T12:40:46.242Z,25.20
2023-05-12T12:43:14.808Z,25.20
2023-05-12T12:45:42.759Z,25.10
2023-05-12T12:48:12.278Z,24.90
2023-05-12T12:50:40.675Z,25.10
2023-05-12T12:53:09.728Z,24.60
2023-05-12T12:55:37.851Z,24.40
2023-05-12T12:58:05.939Z,24.50
2023-05-12T13:00:34.090Z,24.60
2023-05-12T13:03:02.234Z,24.50
2023-05-12T13:05:31.709Z,24.70
2023-05-12T13:07:59.767Z,24.40
2023-05-12T13:10:27.896Z,24.60
2023-05-12T13:12:56.058Z,24.50
2023-05-12T13:15:24.238Z,24.30
2023-05-12T13:17:52.578Z,24.50
2023-05-12T13:20:20.851Z,24.40
2023-05-12T13:22:50.604Z,24.50
2023-05-12T13:25:18.850Z,24.80
2023-05-12T13:27:47.009Z,24.30
2023-05-12T13:30:15.447Z,24.20
2023-05-12T13:32:43.564Z,24.10
2023-05-12T13:35:11.803Z,23.90
2023-05-12T13:37:39.781Z,24.50
2023-05-12T13:40:10.893Z,24.20
2023-05-12T13:42:38.955Z,24.60
2023-05-12T13:45:09.156Z,24.40
2023-05-12T13:47:37.657Z,23.90
2023-05-12T13:50:07.254Z,24.50
2023-05-12T13:52:35.429Z,24.00
2023-05-12T13:55:03.474Z,24.20
2023-05-12T13:57:32.765Z,24.30
2023-05-12T14:00:00.893Z,24.20
2023-05-12T14:02:28.907Z,24.10
2023-05-12T14:04:57.532Z,24.10
2023-05-12T14:07:25.568Z,24.60
2023-05-12T14:09:53.595Z,24.40
2023-05-12T14:12:21.838Z,24.40
2023-05-12T14:14:51.300Z,24.50
2023-05-12T14:17:19.396Z,24.50
2023-05-12T14:19:47.464Z,24.40
2023-05-12T14:22:25.673Z,24.40
2023-05-12T14:24:55.542Z,24.30
2023-05-12T14:27:23.763Z,24.80
2023-05-12T14:29:53.129Z,24.60
2023-05-12T14:32:21.213Z,24.80
2023-05-12T14:34:49.166Z,24.70
2023-05-12T14:37:17.175Z,24.80
2023-05-12T14:39:45.276Z,24.60
2023-05-12T14:42:13.294Z,24.70
2023-05-12T14:44:41.288Z,24.70
2023-05-12T14:47:10.573Z,24.70
2023-05-12T14:49:38.531Z,24.90
2023-05-12T14:52:07.150Z,24.70
2023-05-12T14:54:35.288Z,24.90
2023-05-12T14:57:03.535Z,24.80
2023-05-12T14:59:31.710Z,24.50
2023-05-12T15:01:59.817Z,24.60
2023-05-12T15:04:29.146Z,24.50
2023-05-12T15:06:57.196Z,24.40
2023-05-12T15:09:25.134Z,24.60
2023-05-12T15:11:53.323Z,25.00
2023-05-12T15:14:21.307Z,24.60
2023-05-12T15:16:49.296Z,24.90
2023-05-12T15:19:17.638Z,24.90
2023-05-12T15:21:47.056Z,24.60
2023-05-12T15:24:15.128Z,24.40
2023-05-12T15:26:43.152Z,24.50
2023-05-12T15:29:11.221Z,24.30
2023-05-12T15:31:39.315Z,24.30
2023-05-12T15:34:07.306Z,24.20
2023-05-12T15:36:35.291Z,24.70
2023-05-12T15:39:05.002Z,24.10
2023-05-12T15:41:33.400Z,24.50
2023-05-12T15:44:01.386Z,24.30
2023-05-12T15:46:30.834Z,24.60
2023-05-12T15:48:59.127Z,24.10
2023-05-12T15:51:28.388Z,24.60
2023-05-12T15:53:56.433Z,24.20
2023-05-12T15:56:25.744Z,24.20
2023-05-12T15:58:53.783Z,24.40
2023-05-12T16:01:22.588Z,24.40
2023-05-12T16:03:51.757Z,24.70
2023-05-12T16:06:19.968Z,24.30
2023-05-12T16:08:47.898Z,24.30
2023-05-12T16:11:15.901Z,24.30
2023-05-12T16:13:45.361Z,24.30
2023-05-12T16:16:13.474Z,24.20
2023-05-12T16:18:42.809Z,24.40
2023-05-12T16:21:11.736Z,24.30
2023-05-12T16:23:39.712Z,24.00
2023-05-12T16:26:07.910Z,24.20
2023-05-12T16:28:35.944Z,24.00
2023-05-12T16:31:05.666Z,24.40
2023-05-12T16:33:33.690Z,24.10
2023-05-12T16:36:01.667Z,24.30
2023-05-12T16:38:32.179Z,24.70
2023-05-12T16:41:01.533Z,24.30
2023-05-12T16:43:29.566Z,24.70
2023-05-12T16:46:01.902Z,24.50
2023-05-12T16:48:34.737Z,24.40
2023-05-12T16:51:04.221Z,24.10
2023-05-12T16:53:32.476Z,24.40
2023-05-12T16:56:01.214Z,24.20
2023-05-12T16:58:31.399Z,24.70
2023-05-12T17:01:00.731Z,24.40
2023-05-12T17:03:29.138Z,24.40
2023-05-12T17:05:58.713Z,24.80
2023-05-12T17:08:26.778Z,24.50
2023-05-12T17:10:54.796Z,24.80
2023-05-12T17:13:23.166Z,24.40
2023-05-12T17:15:52.464Z,24.30
2023-05-12T17:18:20.871Z,24.80
2023-05-12T17:20:49.058Z,24.50
2023-05-12T17:23:18.402Z,24.80
2023-05-12T17:25:46.409Z,24.30
2023-05-12T17:28:14.432Z,24.50
2023-05-12T17:30:42.995Z,24.60
2023-05-12T17:33:11.293Z,24.60
2023-05-12T17:35:39.342Z,24.30
2023-05-12T17:38:07.813Z,24.30
2023-05-12T17:40:37.144Z,24.80
2023-05-12T17:43:05.211Z,24.30
2023-05-12T17:45:33.505Z,24.40
2023-05-12T17:48:01.685Z,24.30
2023-05-12T17:50:29.726Z,24.60
2023-05-12T17:52:57.940Z,24.30
2023-05-12T17:55:25.950Z,24.50
2023-05-12T17:57:55.602Z,24.70
2023-05-12T18:00:23.929Z,24.50
2023-05-12T18:02:52.202Z,24.10
2023-05-12T18:05:20.644Z,24.20
2023-05-12T18:07:48.878Z,24.20
2023-05-12T18:10:17.199Z,24.30
2023-05-12T18:12:45.176Z,24.20
2023-05-12T18:15:16.782Z,24.40
2023-05-12T18:17:45.294Z,24.00
2023-05-12T18:20:13.760Z,24.30
2023-05-12T18:22:41.822Z,24.50
2023-05-12T18:25:12.753Z,24.50
2023-05-12T18:27:40.810Z,24.60
2023-05-12T18:30:10.028Z,24.50
2023-05-12T18:32:39.639Z,24.10
2023-05-12T18:35:09.343Z,24.30
2023-05-12T18:37:37.755Z,23.90
2023-05-12T18:40:07.066Z,24.20
2023-05-12T18:42:35.878Z,24.00
2023-05-12T18:45:04.252Z,23.70
2023-05-12T18:47:32.353Z,24.00
2023-05-12T18:50:02.049Z,24.10
2023-05-12T18:52:29.996Z,24.20
2023-05-12T18:54:57.992Z,24.10
2023-05-12T18:57:26.010Z,24.20
2023-05-12T18:59:54.037Z,24.00
2023-05-12T19:02:22.384Z,24.00
2023-05-12T19:04:50.585Z,24.10
2023-05-12T19:07:19.998Z,23.90
2023-05-12T19:09:48.001Z,23.70
2023-05-12T19:12:16.183Z,23.90
2023-05-12T19:14:44.639Z,23.80
2023-05-12T19:17:17.101Z,23.90
2023-05-12T19:19:45.544Z,23.70
2023-05-12T19:22:13.799Z,24.00
2023-05-12T19:24:43.188Z,23.80
2023-05-12T19:27:11.273Z,23.50
2023-05-12T19:29:41.787Z,23.80
2023-05-12T19:32:10.023Z,23.70
2023-05-12T19:34:38.179Z,23.60
2023-05-12T19:37:06.970Z,23.70
2023-05-12T19:39:34.949Z,23.70
2023-05-12T19:42:04.410Z,23.40
2023-05-12T19:44:32.411Z,23.20
2023-05-12T19:47:04.614Z,23.40
2023-05-12T19:49:34.535Z,23.50
2023-05-12T19:52:02.824Z,23.60
2023-05-12T19:54:31.530Z,23.60
2023-05-12T19:56:59.642Z,23.30
2023-05-12T19:59:28.921Z,23.50
2023-05-12T20:01:57.039Z,23.30
2023-05-12T20:04:25.415Z,23.40
2023-05-12T20:06:54.369Z,23.40
2023-05-12T20:09:24.608Z,23.50
2023-05-12T20:11:52.772Z,23.40
2023-05-12T20:14:20.787Z,23.10
2023-05-12T20:16:50.369Z,23.50
2023-05-12T20:19:19.016Z,23.40
2023-05-12T20:21:47.060Z,22.90
2023-05-12T20:24:15.384Z,23.00
2023-05-12T20:26:43.396Z,23.20
2023-05-12T20:29:11.351Z,23.50
2023-05-12T20:31:39.437Z,23.50
2023-05-12T20:34:08.820Z,23.60
2023-05-12T20:36:37.032Z,23.50
2023-05-12T20:39:05.282Z,23.70
2023-05-12T20:41:33.469Z,23.50
2023-05-12T20:44:01.413Z,23.60
2023-05-12T20:46:30.126Z,23.40
2023-05-12T20:48:58.525Z,23.50
2023-05-12T20:51:28.279Z,23.40
2023-05-12T20:53:56.497Z,23.40
2023-05-12T20:56:24.763Z,23.30
2023-05-12T20:58:52.721Z,23.50
2023-05-12T21:01:20.828Z,23.30
2023-05-12T21:03:49.448Z,23.30
2023-05-12T21:06:17.438Z,23.10
2023-05-12T21:08:47.197Z,23.50
2023-05-12T21:11:16.863Z,23.30
2023-05-12T21:13:44.960Z,23.40
2023-05-12T21:16:13.023Z,23.30
2023-05-12T21:18:41.090Z,23.60
2023-05-12T21:21:09.294Z,23.40
2023-05-12T21:23:37.433Z,23.50
2023-05-12T21:26:07.930Z,23.10
2023-05-12T21:28:36.354Z,23.70
2023-05-12T21:31:04.703Z,23.50
2023-05-12T21:33:33.202Z,23.30
2023-05-12T21:36:01.142Z,23.20
2023-05-12T21:38:29.270Z,23.30
2023-05-12T21:40:57.306Z,23.40
2023-05-12T21:43:26.613Z,23.50
2023-05-12T21:45:54.883Z,23.40
2023-05-12T21:48:23.034Z,23.20
2023-05-12T21:50:59.724Z,23.40
2023-05-12T21:53:28.085Z,23.30
2023-05-12T21:55:56.341Z,23.50
2023-05-12T21:58:26.077Z,23.00
2023-05-12T22:00:54.539Z,23.40
2023-05-12T22:03:24.859Z,23.40
2023-05-12T22:05:53.049Z,23.10
2023-05-12T22:08:21.287Z,23.20
2023-05-12T22:10:49.358Z,23.50
2023-05-12T22:13:17.299Z,23.30
2023-05-12T22:15:46.665Z,23.30
2023-05-12T22:18:14.714Z,23.10
2023-05-12T22:20:42.819Z,23.20
2023-05-12T22:23:10.842Z,23.40
2023-05-12T22:25:38.929Z,23.40
2023-05-12T22:28:07.356Z,23.20
2023-05-12T22:30:35.417Z,23.40
2023-05-12T22:33:04.972Z,23.50
2023-05-12T22:35:33.037Z,23.30
2023-05-12T22:38:01.080Z,23.30
2023-05-12T22:40:29.148Z,23.10
2023-05-12T22:42:57.151Z,23.40
2023-05-12T22:45:25.362Z,23.20
2023-05-12T22:47:53.542Z,23.10
2023-05-12T22:50:23.584Z,23.40
2023-05-12T22:52:52.870Z,23.40
2023-05-12T22:55:21.275Z,23.30
2023-05-12T22:57:49.260Z,23.40
2023-05-12T23:00:17.762Z,23.20
2023-05-12T23:02:45.839Z,23.20
2023-05-12T23:05:13.854Z,23.20
2023-05-12T23:07:43.251Z,23.00
2023-05-12T23:10:11.846Z,23.40
2023-05-12T23:12:40.144Z,23.20
2023-05-12T23:15:09.947Z,23.40
2023-05-12T23:17:37.991Z,23.40
2023-05-12T23:20:08.359Z,23.40
2023-05-12T23:22:36.336Z,23.30
2023-05-12T23:25:06.368Z,23.50
2023-05-12T23:27:34.373Z,23.10
2023-05-12T23:30:02.361Z,23.40
2023-05-12T23:32:31.124Z,23.30
2023-05-12T23:34:59.232Z,22.80
2023-05-12T23:37:27.352Z,23.30
2023-05-12T23:39:55.457Z,23.20
2023-05-12T23:42:24.740Z,23.20
2023-05-12T23:44:52.803Z,23.00
2023-05-12T23:47:20.839Z,23.20
2023-05-12T23:49:48.793Z,23.30
2023-05-12T23:52:16.812Z,23.20
2023-05-12T23:54:44.782Z,23.30
2023-05-12T23:57:14.106Z,23.40
2023-05-12T23:59:43.429Z,23.20
